Terminal Aerodrome Forecast
Issued by NWS Louisville, KY

Current Version | Previous Version | Text Only | Print | Product List | Glossary On
Versions: 1 2 3 4 5 6 7 8 9 10 11 12 13 14 15 16 17 18 19 20
000
FTUS43 KLMK 290600 AAA
TAFLEX
TAF AMD
KLEX 290634Z 2907/3006 00000KT 5SM BR BKN035
     FM290900 15004KT 4SM BR BKN015
     FM291300 18009KT 5SM BR VCSH BKN025
     FM291600 20011KT P6SM VCTS BKN035CB
     FM300100 17007KT P6SM SCT040 SCT250=

USA.gov is the U.S. government's official web portal to all federal, state and local government web resources and services.